createdAt,value
2023-03-26T00:01:41.702Z,12.25
2023-03-26T00:04:10.666Z,11.23
2023-03-26T00:06:40.088Z,10.15
2023-03-26T00:09:10.829Z,9.80
2023-03-26T00:11:38.760Z,11.65
2023-03-26T00:14:06.733Z,11.83
2023-03-26T00:16:34.756Z,10.75
2023-03-26T00:19:02.796Z,9.87
2023-03-26T00:21:31.788Z,9.68
2023-03-26T00:24:04.622Z,11.42
2023-03-26T00:26:34.204Z,12.22
2023-03-26T00:29:03.778Z,11.16
2023-03-26T00:31:33.031Z,10.11
2023-03-26T00:34:03.713Z,9.85
2023-03-26T00:36:32.184Z,11.46
2023-03-26T00:39:01.311Z,12.45
2023-03-26T00:41:31.060Z,11.33
2023-03-26T00:44:00.492Z,10.20
2023-03-26T00:46:31.491Z,9.87
2023-03-26T00:49:00.285Z,11.53
2023-03-26T00:51:28.821Z,11.72
2023-03-26T00:53:57.964Z,10.67
2023-03-26T00:56:26.470Z,9.76
2023-03-26T00:58:54.406Z,10.20
2023-03-26T01:01:29.201Z,11.66
2023-03-26T01:04:08.299Z,11.09
2023-03-26T01:06:42.254Z,9.95
2023-03-26T01:09:16.052Z,10.63
2023-03-26T01:11:45.343Z,12.20
2023-03-26T01:14:17.903Z,11.53
2023-03-26T01:16:55.205Z,10.17
2023-03-26T01:19:39.337Z,10.22
2023-03-26T01:22:11.211Z,11.75
2023-03-26T01:24:40.377Z,12.71
2023-03-26T01:27:17.999Z,12.51
2023-03-26T01:29:56.672Z,11.16
2023-03-26T01:32:33.765Z,10.52
2023-03-26T01:35:15.107Z,11.80
2023-03-26T01:37:43.003Z,12.83
2023-03-26T01:40:23.729Z,12.97
2023-03-26T01:43:11.010Z,11.59
2023-03-26T01:45:42.700Z,10.37
2023-03-26T01:48:10.817Z,10.05
2023-03-26T01:50:38.893Z,11.50
2023-03-26T01:53:09.002Z,12.71
2023-03-26T01:56:02.423Z,13.14
2023-03-26T01:58:49.885Z,11.84
2023-03-26T02:01:30.435Z,10.55
2023-03-26T02:04:39.775Z,10.27
2023-03-26T02:07:29.498Z,12.38
2023-03-26T02:10:06.948Z,13.46
2023-03-26T02:12:35.570Z,12.80
2023-03-26T02:15:04.757Z,11.36
2023-03-26T02:17:33.312Z,10.35
2023-03-26T02:20:10.764Z,10.89
2023-03-26T02:22:45.973Z,12.67
2023-03-26T02:25:17.907Z,13.01
2023-03-26T02:27:47.163Z,11.63
2023-03-26T02:30:29.773Z,10.35
2023-03-26T02:33:00.164Z,10.07
2023-03-26T02:35:34.664Z,11.78
2023-03-26T02:38:03.043Z,12.97
2023-03-26T02:40:31.045Z,13.16
2023-03-26T02:42:59.107Z,11.87
2023-03-26T02:45:28.766Z,10.52
2023-03-26T02:48:28.530Z,9.48
2023-03-26T02:51:14.711Z,10.57
2023-03-26T02:54:03.937Z,12.27
2023-03-26T02:56:56.279Z,12.41
2023-03-26T02:59:36.019Z,10.92
2023-03-26T03:02:33.141Z,9.73
2023-03-26T03:05:10.662Z,9.56
2023-03-26T03:07:39.124Z,11.23
2023-03-26T03:10:13.820Z,12.60
2023-03-26T03:13:00.514Z,11.95
2023-03-26T03:15:28.613Z,10.54
2023-03-26T03:17:57.017Z,9.65
2023-03-26T03:20:27.386Z,10.70
2023-03-26T03:22:56.064Z,12.31
2023-03-26T03:25:26.141Z,12.38
2023-03-26T03:27:54.619Z,11.00
2023-03-26T03:30:22.777Z,9.88
2023-03-26T03:33:21.479Z,9.79
2023-03-26T03:35:50.609Z,11.54
2023-03-26T03:38:19.625Z,12.88
2023-03-26T03:40:49.843Z,12.49
2023-03-26T03:43:17.864Z,10.98
2023-03-26T03:45:57.675Z,9.97
2023-03-26T03:48:48.279Z,11.03
2023-03-26T03:51:18.426Z,12.53
2023-03-26T03:53:58.605Z,12.28
2023-03-26T03:56:40.706Z,10.78
2023-03-26T03:59:27.115Z,9.51
2023-03-26T04:01:55.112Z,9.79
2023-03-26T04:04:34.787Z,11.63
2023-03-26T04:07:07.428Z,12.24
2023-03-26T04:09:51.224Z,10.85
2023-03-26T04:12:19.982Z,9.77
2023-03-26T04:14:57.209Z,10.20
2023-03-26T04:17:26.240Z,11.80
2023-03-26T04:19:56.304Z,12.29
2023-03-26T04:22:34.770Z,11.19
2023-03-26T04:25:05.364Z,9.99
2023-03-26T04:27:41.843Z,9.79
2023-03-26T04:30:23.602Z,11.83
2023-03-26T04:33:17.491Z,11.84
2023-03-26T04:35:46.182Z,10.38
2023-03-26T04:38:17.601Z,9.50
2023-03-26T04:40:48.474Z,10.48
2023-03-26T04:43:19.261Z,11.91
2023-03-26T04:46:05.295Z,11.93
2023-03-26T04:48:41.167Z,10.48
2023-03-26T04:51:17.957Z,9.56
2023-03-26T04:53:53.373Z,10.38
2023-03-26T04:56:50.029Z,12.03
2023-03-26T04:59:34.483Z,11.46
2023-03-26T05:02:06.242Z,9.96
2023-03-26T05:04:40.283Z,9.98
2023-03-26T05:07:09.569Z,11.79
2023-03-26T05:09:44.975Z,12.34
2023-03-26T05:12:16.620Z,11.01
2023-03-26T05:15:08.996Z,9.86
2023-03-26T05:17:59.752Z,9.81
2023-03-26T05:20:50.329Z,12.11
2023-03-26T05:23:18.509Z,11.40
2023-03-26T05:25:52.115Z,10.36
2023-03-26T05:28:24.448Z,9.71
2023-03-26T05:30:56.444Z,11.23
2023-03-26T05:33:25.977Z,12.27
2023-03-26T05:36:15.678Z,10.97
2023-03-26T05:39:09.928Z,9.84
2023-03-26T05:42:12.929Z,10.16
2023-03-26T05:44:53.602Z,12.11
2023-03-26T05:47:27.499Z,11.72
2023-03-26T05:49:55.900Z,10.65
2023-03-26T05:52:24.224Z,9.83
2023-03-26T05:55:11.405Z,9.99
2023-03-26T05:57:58.007Z,11.97
2023-03-26T06:00:48.897Z,12.10
2023-03-26T06:03:20.020Z,10.83
2023-03-26T06:06:15.521Z,9.94
2023-03-26T06:09:02.277Z,9.37
2023-03-26T06:11:32.057Z,10.15
2023-03-26T06:14:01.155Z,11.44
2023-03-26T06:16:29.170Z,10.79
2023-03-26T06:19:07.169Z,9.92
2023-03-26T06:21:51.092Z,9.37
2023-03-26T06:24:23.054Z,9.98
2023-03-26T06:27:23.324Z,11.95
2023-03-26T06:30:22.962Z,11.31
2023-03-26T06:33:13.671Z,10.23
2023-03-26T06:35:48.856Z,9.58
2023-03-26T06:38:17.754Z,9.66
2023-03-26T06:40:46.135Z,11.50
2023-03-26T06:43:23.147Z,11.75
2023-03-26T06:45:57.056Z,10.79
2023-03-26T06:48:45.367Z,10.05
2023-03-26T06:51:20.693Z,9.53
2023-03-26T06:54:07.419Z,9.99
2023-03-26T06:57:13.839Z,11.75
2023-03-26T07:00:01.011Z,10.80
2023-03-26T07:02:51.806Z,10.08
2023-03-26T07:05:41.223Z,9.64
2023-03-26T07:08:28.260Z,9.48
2023-03-26T07:11:16.748Z,9.84
2023-03-26T07:14:11.372Z,11.93
2023-03-26T07:16:59.899Z,11.37
2023-03-26T07:19:35.798Z,10.64
2023-03-26T07:22:04.317Z,10.19
2023-03-26T07:24:52.886Z,9.82
2023-03-26T07:27:52.288Z,9.62
2023-03-26T07:30:53.297Z,9.51
2023-03-26T07:33:42.445Z,9.60
2023-03-26T07:36:54.387Z,11.72
2023-03-26T07:39:57.892Z,11.80
2023-03-26T07:43:09.761Z,10.95
2023-03-26T07:45:57.529Z,10.50
2023-03-26T07:48:48.012Z,10.15
2023-03-26T07:51:40.634Z,9.91
2023-03-26T07:54:17.564Z,9.75
2023-03-26T07:57:06.495Z,9.66
2023-03-26T08:00:12.366Z,9.87
2023-03-26T08:03:15.164Z,12.21
2023-03-26T08:06:10.770Z,12.17
2023-03-26T08:09:30.211Z,11.34
2023-03-26T08:12:23.916Z,10.69
2023-03-26T08:15:25.705Z,10.31
2023-03-26T08:18:19.871Z,10.07
2023-03-26T08:20:51.332Z,9.97
2023-03-26T08:23:28.376Z,9.94
2023-03-26T08:26:09.465Z,9.99
2023-03-26T08:28:50.760Z,10.07
2023-03-26T08:31:23.451Z,10.11
2023-03-26T08:33:51.725Z,10.14
2023-03-26T08:36:19.918Z,10.15
2023-03-26T08:38:48.549Z,10.16
2023-03-26T08:41:25.676Z,10.18
2023-03-26T08:44:18.571Z,10.21
2023-03-26T08:46:49.492Z,10.27
2023-03-26T08:49:42.809Z,10.33
2023-03-26T08:52:34.761Z,10.37
2023-03-26T08:55:36.587Z,10.45
2023-03-26T08:58:36.163Z,10.46
2023-03-26T09:01:06.788Z,10.53
2023-03-26T09:03:34.716Z,10.62
2023-03-26T09:06:38.991Z,10.69
2023-03-26T09:09:09.690Z,10.70
2023-03-26T09:12:17.035Z,10.75
2023-03-26T09:15:06.757Z,10.78
2023-03-26T09:17:41.555Z,10.80
2023-03-26T09:20:51.111Z,10.87
2023-03-26T09:23:49.758Z,10.92
2023-03-26T09:26:43.231Z,10.86
2023-03-26T09:29:37.041Z,10.88
2023-03-26T09:32:31.054Z,10.90
2023-03-26T09:35:17.701Z,10.90
2023-03-26T09:38:10.733Z,10.83
2023-03-26T09:41:13.872Z,10.73
2023-03-26T09:43:56.483Z,10.68
2023-03-26T09:46:46.672Z,10.68
2023-03-26T09:49:24.791Z,10.76
2023-03-26T09:52:11.489Z,10.85
2023-03-26T09:54:56.910Z,10.99
2023-03-26T09:57:28.587Z,11.02
2023-03-26T10:00:09.922Z,11.08
2023-03-26T10:03:01.502Z,11.12
2023-03-26T10:05:48.678Z,11.22
2023-03-26T10:08:37.827Z,11.28
2023-03-26T10:11:23.565Z,11.31
2023-03-26T10:14:33.288Z,11.34
2023-03-26T10:17:19.733Z,11.45
2023-03-26T10:20:05.026Z,11.49
2023-03-26T10:23:00.744Z,11.44
2023-03-26T10:25:55.082Z,11.41
2023-03-26T10:28:32.833Z,11.42
2023-03-26T10:31:07.956Z,11.46
2023-03-26T10:34:28.144Z,11.50
2023-03-26T10:37:16.479Z,11.60
2023-03-26T10:39:55.613Z,11.63
2023-03-26T10:43:39.917Z,11.64
2023-03-26T10:46:38.469Z,11.62
2023-03-26T10:49:25.421Z,11.62
2023-03-26T10:51:59.134Z,11.70
2023-03-26T10:54:51.664Z,11.82
2023-03-26T10:57:45.111Z,11.91
2023-03-26T11:00:28.053Z,11.85
2023-03-26T11:03:20.945Z,11.75
2023-03-26T11:06:18.847Z,11.63
2023-03-26T11:09:12.356Z,11.55
2023-03-26T11:11:55.519Z,11.41
2023-03-26T11:14:33.892Z,11.30
2023-03-26T11:17:39.539Z,11.30
2023-03-26T11:20:18.229Z,11.34
2023-03-26T11:23:24.049Z,11.36
2023-03-26T11:25:59.830Z,11.31
2023-03-26T11:29:32.334Z,11.27
2023-03-26T11:32:06.214Z,11.24
2023-03-26T11:34:49.473Z,11.30
2023-03-26T11:37:34.172Z,11.31
2023-03-26T11:40:07.436Z,11.34
2023-03-26T11:42:35.865Z,11.33
2023-03-26T11:45:08.292Z,11.29
2023-03-26T11:47:53.838Z,11.22
2023-03-26T11:50:28.661Z,11.20
2023-03-26T11:53:11.665Z,11.13
2023-03-26T11:55:44.382Z,11.11
2023-03-26T11:58:47.559Z,11.16
2023-03-26T12:01:22.824Z,11.45
2023-03-26T12:03:57.656Z,11.74
2023-03-26T12:06:27.661Z,11.85
2023-03-26T12:08:57.095Z,11.84
2023-03-26T12:11:28.519Z,11.82
2023-03-26T12:14:05.726Z,11.77
2023-03-26T12:16:34.633Z,11.73
2023-03-26T12:19:08.288Z,11.72
2023-03-26T12:21:48.479Z,11.76
2023-03-26T12:24:32.110Z,11.77
2023-03-26T12:27:21.608Z,11.81
2023-03-26T12:30:00.118Z,11.98
2023-03-26T12:32:45.263Z,12.12
2023-03-26T12:35:22.720Z,12.15
2023-03-26T12:37:50.842Z,12.20
2023-03-26T12:40:32.670Z,12.33
2023-03-26T12:44:54.714Z,12.40
2023-03-26T12:46:58.954Z,12.37
2023-03-26T12:48:47.515Z,12.30
2023-03-26T12:51:36.237Z,12.27
2023-03-26T12:54:44.811Z,12.43
2023-03-26T12:57:38.941Z,12.85
2023-03-26T13:00:22.923Z,13.08
2023-03-26T13:02:51.433Z,13.07
2023-03-26T13:05:22.430Z,12.95
2023-03-26T13:08:12.662Z,12.83
2023-03-26T13:10:59.552Z,12.76
2023-03-26T13:13:36.405Z,12.72
2023-03-26T13:16:29.944Z,12.71
2023-03-26T13:19:32.845Z,12.68
2023-03-26T13:22:21.918Z,12.63
2023-03-26T13:25:13.625Z,12.63
2023-03-26T13:28:06.515Z,12.85
2023-03-26T13:30:42.417Z,13.05
2023-03-26T13:33:16.112Z,13.04
2023-03-26T13:36:00.691Z,13.02
2023-03-26T13:38:43.701Z,12.99
2023-03-26T13:41:44.197Z,13.10
2023-03-26T13:44:27.179Z,13.35
2023-03-26T13:47:10.997Z,13.49
2023-03-26T13:49:46.753Z,13.52
2023-03-26T13:52:42.487Z,13.54
2023-03-26T13:55:19.766Z,13.61
2023-03-26T13:58:05.101Z,13.80
2023-03-26T14:00:54.789Z,14.02
2023-03-26T14:03:54.105Z,14.00
2023-03-26T14:06:46.883Z,13.81
2023-03-26T14:09:22.998Z,13.56
2023-03-26T14:11:57.748Z,13.36
2023-03-26T14:14:41.563Z,13.19
2023-03-26T14:17:29.020Z,13.09
2023-03-26T14:20:19.992Z,13.06
2023-03-26T14:23:15.937Z,12.98
2023-03-26T14:26:08.691Z,12.91
2023-03-26T14:29:33.686Z,12.80
2023-03-26T14:32:24.565Z,12.71
2023-03-26T14:35:16.790Z,12.66
2023-03-26T14:38:13.083Z,12.59
2023-03-26T14:41:08.839Z,12.55
2023-03-26T14:44:00.121Z,12.53
2023-03-26T14:46:55.361Z,12.51
2023-03-26T14:49:47.712Z,12.49
2023-03-26T14:52:24.998Z,12.48
2023-03-26T14:54:56.059Z,12.45
2023-03-26T14:57:36.484Z,12.42
2023-03-26T15:00:20.059Z,12.40
2023-03-26T15:03:29.928Z,12.42
2023-03-26T15:06:21.216Z,12.43
2023-03-26T15:09:07.580Z,12.45
2023-03-26T15:12:12.512Z,12.45
2023-03-26T15:15:00.194Z,12.48
2023-03-26T15:17:49.988Z,12.51
2023-03-26T15:20:20.892Z,12.58
2023-03-26T15:23:18.149Z,12.71
2023-03-26T15:26:04.798Z,12.78
2023-03-26T15:29:03.992Z,12.82
2023-03-26T15:31:53.583Z,12.83
2023-03-26T15:34:48.688Z,12.79
2023-03-26T15:37:44.580Z,12.76
2023-03-26T15:40:47.333Z,12.75
2023-03-26T15:43:20.218Z,12.79
2023-03-26T15:46:06.868Z,12.79
2023-03-26T15:49:01.084Z,12.78
2023-03-26T15:51:51.038Z,12.78
2023-03-26T15:54:43.689Z,12.74
2023-03-26T15:57:20.001Z,12.70
2023-03-26T16:00:16.905Z,12.66
2023-03-26T16:03:10.149Z,12.62
2023-03-26T16:06:10.497Z,12.57
2023-03-26T16:09:03.609Z,12.56
2023-03-26T16:11:56.510Z,12.66
2023-03-26T16:14:36.481Z,12.79
2023-03-26T16:17:11.825Z,12.92
2023-03-26T16:19:54.942Z,12.95
2023-03-26T16:22:51.988Z,12.88
2023-03-26T16:25:32.808Z,12.77
2023-03-26T16:28:13.032Z,12.66
2023-03-26T16:30:42.236Z,12.75
2023-03-26T16:33:21.450Z,12.88
2023-03-26T16:36:34.406Z,12.82
2023-03-26T16:39:05.656Z,12.66
2023-03-26T16:41:52.576Z,12.56
2023-03-26T16:44:43.783Z,12.63
2023-03-26T16:47:43.040Z,12.67
2023-03-26T16:50:29.199Z,12.54
2023-03-26T16:53:01.065Z,12.37
2023-03-26T16:55:49.400Z,12.21
2023-03-26T16:58:31.093Z,12.05
2023-03-26T17:01:11.001Z,11.92
2023-03-26T17:03:50.053Z,11.79
2023-03-26T17:06:56.847Z,11.68
2023-03-26T17:09:37.982Z,11.56
2023-03-26T17:12:31.828Z,11.47
2023-03-26T17:15:21.162Z,11.38
2023-03-26T17:18:26.346Z,11.30
2023-03-26T17:20:58.674Z,11.19
2023-03-26T17:23:41.490Z,11.09
2023-03-26T17:26:24.100Z,10.99
2023-03-26T17:29:28.657Z,10.88
2023-03-26T17:32:01.171Z,10.76
2023-03-26T17:34:38.619Z,10.67
2023-03-26T17:37:19.022Z,10.58
2023-03-26T17:39:47.120Z,10.51
2023-03-26T17:42:30.724Z,10.43
2023-03-26T17:45:01.903Z,10.34
2023-03-26T17:47:39.587Z,10.26
2023-03-26T17:50:14.784Z,10.17
2023-03-26T17:52:55.697Z,10.10
2023-03-26T17:55:30.637Z,10.02
2023-03-26T17:58:01.239Z,9.95
2023-03-26T18:00:40.142Z,9.89
2023-03-26T18:03:18.941Z,9.80
2023-03-26T18:05:49.220Z,9.68
2023-03-26T18:08:39.284Z,9.55
2023-03-26T18:11:25.656Z,9.37
2023-03-26T18:14:02.359Z,9.20
2023-03-26T18:16:41.832Z,9.03
2023-03-26T18:19:18.553Z,8.84
2023-03-26T18:21:50.409Z,8.66
2023-03-26T18:24:22.569Z,8.47
2023-03-26T18:27:11.977Z,8.30
2023-03-26T18:30:02.002Z,8.14
2023-03-26T18:32:33.854Z,7.98
2023-03-26T18:35:15.634Z,7.84
2023-03-26T18:37:46.338Z,7.68
2023-03-26T18:40:23.617Z,7.57
2023-03-26T18:42:55.363Z,7.47
2023-03-26T18:45:23.355Z,7.40
2023-03-26T18:47:58.009Z,7.71
2023-03-26T18:50:36.703Z,9.73
2023-03-26T18:53:08.267Z,11.64
2023-03-26T18:55:39.675Z,12.46
2023-03-26T18:58:23.275Z,11.61
2023-03-26T19:00:55.172Z,10.69
2023-03-26T19:03:24.581Z,10.20
2023-03-26T19:05:55.863Z,9.86
2023-03-26T19:08:25.763Z,9.62
2023-03-26T19:10:55.218Z,9.43
2023-03-26T19:13:23.465Z,9.31
2023-03-26T19:15:54.707Z,9.21
2023-03-26T19:18:26.480Z,9.14
2023-03-26T19:20:59.166Z,9.09
2023-03-26T19:23:32.322Z,9.06
2023-03-26T19:26:04.776Z,9.04
2023-03-26T19:28:41.856Z,9.02
2023-03-26T19:31:12.624Z,8.99
2023-03-26T19:33:42.708Z,9.40
2023-03-26T19:36:13.835Z,11.43
2023-03-26T19:38:49.499Z,12.88
2023-03-26T19:41:23.398Z,11.96
2023-03-26T19:43:55.900Z,10.99
2023-03-26T19:46:26.830Z,10.32
2023-03-26T19:48:57.632Z,10.35
2023-03-26T19:51:36.292Z,12.12
2023-03-26T19:54:14.280Z,13.12
2023-03-26T19:56:43.591Z,12.07
2023-03-26T19:59:11.658Z,11.04
2023-03-26T20:01:39.682Z,10.91
2023-03-26T20:04:12.060Z,12.58
2023-03-26T20:06:43.817Z,13.86
2023-03-26T20:09:13.136Z,14.21
2023-03-26T20:11:41.979Z,12.94
2023-03-26T20:14:14.860Z,11.69
2023-03-26T20:16:45.408Z,10.85
2023-03-26T20:22:03.156Z,13.38
2023-03-26T20:24:32.893Z,12.95
2023-03-26T20:27:00.812Z,11.54
2023-03-26T20:29:29.480Z,11.22
2023-03-26T20:31:57.876Z,12.46
2023-03-26T20:34:26.281Z,13.63
2023-03-26T20:36:56.114Z,13.64
2023-03-26T20:39:24.982Z,12.34
2023-03-26T20:41:54.842Z,11.24
2023-03-26T20:44:23.112Z,10.93
2023-03-26T20:46:51.502Z,12.20
2023-03-26T20:49:22.301Z,13.15
2023-03-26T20:51:50.532Z,13.79
2023-03-26T20:54:21.603Z,13.39
2023-03-26T20:56:50.407Z,12.15
2023-03-26T20:59:28.383Z,11.17
2023-03-26T21:01:57.956Z,11.00
2023-03-26T21:04:29.611Z,12.55
2023-03-26T21:07:07.052Z,13.77
2023-03-26T21:09:39.612Z,14.10
2023-03-26T21:12:38.306Z,12.89
2023-03-26T21:15:10.572Z,11.51
2023-03-26T21:17:51.193Z,11.20
2023-03-26T21:20:20.021Z,12.73
2023-03-26T21:22:54.330Z,13.99
2023-03-26T21:25:34.334Z,14.29
2023-03-26T21:28:28.874Z,12.97
2023-03-26T21:31:06.366Z,11.59
2023-03-26T21:33:34.502Z,11.29
2023-03-26T21:36:04.487Z,12.70
2023-03-26T21:38:33.253Z,13.95
2023-03-26T21:41:03.333Z,14.28
2023-03-26T21:43:31.989Z,13.10
2023-03-26T21:46:00.501Z,11.88
2023-03-26T21:48:29.386Z,11.39
2023-03-26T21:51:02.446Z,12.79
2023-03-26T21:53:30.746Z,14.06
2023-03-26T21:56:32.387Z,14.66
2023-03-26T21:59:11.005Z,14.50
2023-03-26T22:02:13.769Z,13.05
2023-03-26T22:04:56.692Z,11.69
2023-03-26T22:07:35.032Z,11.43
2023-03-26T22:10:03.264Z,12.94
2023-03-26T22:12:31.126Z,14.06
2023-03-26T22:14:59.029Z,14.74
2023-03-26T22:17:27.622Z,14.31
2023-03-26T22:19:56.160Z,12.81
2023-03-26T22:22:26.260Z,11.54
2023-03-26T22:24:54.737Z,11.08
2023-03-26T22:27:22.766Z,12.45
2023-03-26T22:29:50.660Z,13.74
2023-03-26T22:32:18.847Z,14.54
2023-03-26T22:34:46.913Z,14.63
2023-03-26T22:37:16.294Z,13.36
2023-03-26T22:39:44.190Z,12.05
2023-03-26T22:42:12.186Z,11.47
2023-03-26T22:44:40.328Z,12.61
2023-03-26T22:47:09.711Z,13.74
2023-03-26T22:49:37.541Z,14.41
2023-03-26T22:52:07.237Z,14.48
2023-03-26T22:54:36.565Z,13.23
2023-03-26T22:57:08.517Z,12.00
2023-03-26T22:59:36.886Z,11.56
2023-03-26T23:02:04.868Z,12.91
2023-03-26T23:04:32.780Z,14.08
2023-03-26T23:07:00.837Z,14.70
2023-03-26T23:09:29.682Z,14.61
2023-03-26T23:12:26.453Z,13.21
2023-03-26T23:14:54.369Z,11.72
2023-03-26T23:17:22.422Z,11.29
2023-03-26T23:19:50.430Z,12.45
2023-03-26T23:22:18.358Z,13.53
2023-03-26T23:24:46.325Z,14.29
2023-03-26T23:27:14.397Z,14.75
2023-03-26T23:29:42.353Z,14.79
2023-03-26T23:32:24.203Z,13.54
2023-03-26T23:34:53.204Z,12.20
2023-03-26T23:37:23.481Z,11.73
2023-03-26T23:39:52.673Z,13.02
2023-03-26T23:42:28.485Z,14.10
2023-03-26T23:44:57.745Z,14.68
2023-03-26T23:47:25.754Z,14.64
2023-03-26T23:49:53.716Z,13.33
2023-03-26T23:52:21.759Z,12.08
2023-03-26T23:54:49.764Z,11.58
2023-03-26T23:57:18.555Z,12.88
2023-03-26T23:59:46.584Z,14.01
